Etusivu
METAR-TAF:

METAR-TAF

Lentoasemat :

Shelby County Airport

Alabaster, Alabama, Yhdysvallat

Leveyspiiri: 33-10-42N, Pituuspiiri: 086-46-54W, korkeus merenpinnasta: 178 m

Tämänhetkinen sää

Tämä raportti tehtiin 47 minuuttia sitten, kello 08.53 UTC
tyyntä
Lämpötila 2°C
Kosteus 87%
Ilmanpaine 1032 hPa
Näkyvyys: 16.1 km
selkeää

METAR: KEET 080853Z AUTO 00000KT 10SM CLR 02/00 A3047 RMK AO2 SLP316 T00220000 50004

Aika: 03:40 (09:40 UTC)

Sääennuste

Tämä raportti tehtiin 4 tuntia ja 20 minuuttia sitten, kello 05.20 UTC
Ennuste voimassa 08. päivästä klo 06 UTC - 09. päivään klo 06 UTC
Tuuli kn pohjoisesta
Näkyvyys: 10 km
selkeää
From 08. päivästä klo 1600 UTC
Tuuli 5 kn etelästä
Näkyvyys: 10 km
selkeää
From 09. päivästä klo 0000 UTC
Tuuli kn pohjoisesta
Näkyvyys: 10 km
selkeää

TAF: KEET 080520Z 0806/0906 00000KT P6SM SKC FM081600 19005KT P6SM SKC FM090000 00000KT P6SM SKC

Säähavainnot ja -ennusteet yli 4000 lentoasemalta (METAR- ja TAF-raportit).

Käytössä olevat sääasemat on merkitty karttaan keltaisilla ja punaisilla pisteillä.

Aseta hiiri pisteen päälle nähdäksesi sääaseman nimen.

Klikkaa sitten nähdäksesi säähavainnot ja -ennusteet.

Kartan vaihtaminen: klikkaa mustalla rastilla varustettuja vihreitä pisteitä, niin voit zoomata sisään; viivalla varustettua vihreää pistettä, niin voit zoomata ulos tai vihreitä nuolia, niin pääset viereisille kartoille.


METAR-TAF: